createdAt,value
2022-08-07T00:01:43.649Z,95.74
2022-08-07T00:04:09.312Z,97.23
2022-08-07T00:06:45.528Z,98.05
2022-08-07T00:09:22.795Z,98.28
2022-08-07T00:11:55.648Z,97.95
2022-08-07T00:14:25.542Z,97.33
2022-08-07T00:16:58.297Z,97.30
2022-08-07T00:19:34.161Z,97.28
2022-08-07T00:22:24.558Z,96.56
2022-08-07T00:25:04.860Z,96.90
2022-08-07T00:27:35.821Z,97.57
2022-08-07T00:30:27.571Z,99.03
2022-08-07T00:32:58.241Z,98.34
2022-08-07T00:35:29.837Z,97.98
2022-08-07T00:37:58.810Z,97.68
2022-08-07T00:40:39.150Z,97.41
2022-08-07T00:43:14.027Z,97.80
2022-08-07T00:45:58.252Z,97.42
2022-08-07T00:48:31.990Z,97.54
2022-08-07T00:51:03.570Z,97.27
2022-08-07T00:53:44.171Z,97.63
2022-08-07T00:56:19.323Z,97.75
2022-08-07T00:58:49.682Z,98.53
2022-08-07T01:01:21.090Z,99.42
2022-08-07T01:03:55.675Z,99.91
2022-08-07T01:06:30.707Z,99.75
2022-08-07T01:09:01.503Z,100.00
2022-08-07T01:12:27.805Z,99.71
2022-08-07T01:14:28.525Z,99.47
2022-08-07T01:16:57.672Z,100.00
2022-08-07T01:19:32.597Z,100.00
2022-08-07T01:22:04.114Z,99.92
2022-08-07T01:24:42.180Z,100.00
2022-08-07T01:27:19.734Z,100.00
2022-08-07T01:29:48.598Z,100.00
2022-08-07T01:32:18.968Z,100.00
2022-08-07T01:34:51.784Z,100.00
2022-08-07T01:37:22.036Z,100.00
2022-08-07T01:39:53.369Z,100.00
2022-08-07T01:42:37.882Z,100.00
2022-08-07T01:45:18.396Z,100.00
2022-08-07T01:48:19.359Z,100.00
2022-08-07T01:50:46.925Z,100.00
2022-08-07T01:54:11.745Z,100.00
2022-08-07T01:56:15.138Z,100.00
2022-08-07T01:58:51.930Z,100.00
2022-08-07T02:01:59.236Z,100.00
2022-08-07T02:04:19.211Z,100.00
2022-08-07T02:06:56.549Z,100.00
2022-08-07T02:09:33.963Z,100.00
2022-08-07T02:12:22.132Z,100.00
2022-08-07T02:15:00.542Z,100.00
2022-08-07T02:17:45.405Z,100.00
2022-08-07T02:20:23.459Z,100.00
2022-08-07T02:22:59.727Z,100.00
2022-08-07T02:26:30.735Z,100.00
2022-08-07T02:28:24.595Z,100.00
2022-08-07T02:30:58.608Z,100.00
2022-08-07T02:33:33.053Z,100.00
2022-08-07T02:36:30.917Z,100.00
2022-08-07T02:39:16.783Z,100.00
2022-08-07T02:41:59.168Z,100.00
2022-08-07T02:44:34.829Z,100.00
2022-08-07T02:47:07.923Z,100.00
2022-08-07T02:49:57.796Z,100.00
2022-08-07T02:52:34.026Z,100.00
2022-08-07T02:55:15.392Z,100.00
2022-08-07T02:58:04.014Z,100.00
2022-08-07T03:00:35.644Z,100.00
2022-08-07T03:03:07.073Z,100.00
2022-08-07T03:05:45.239Z,100.00
2022-08-07T03:08:14.765Z,100.00
2022-08-07T03:10:47.363Z,100.00
2022-08-07T03:13:22.329Z,100.00
2022-08-07T03:15:58.543Z,100.00
2022-08-07T03:18:34.634Z,100.00
2022-08-07T03:21:08.187Z,100.00
2022-08-07T03:24:18.200Z,100.00
2022-08-07T03:26:33.106Z,100.00
2022-08-07T03:29:11.229Z,100.00
2022-08-07T03:31:46.676Z,100.00
2022-08-07T03:34:22.555Z,100.00
2022-08-07T03:36:59.093Z,100.00
2022-08-07T03:39:59.039Z,100.00
2022-08-07T03:42:20.135Z,100.00
2022-08-07T03:44:53.598Z,100.00
2022-08-07T03:47:28.035Z,100.00
2022-08-07T03:49:58.856Z,100.00
2022-08-07T03:52:34.007Z,100.00
2022-08-07T03:55:07.836Z,100.00
2022-08-07T03:58:35.249Z,100.00
2022-08-07T04:00:36.538Z,100.00
2022-08-07T04:03:06.199Z,100.00
2022-08-07T04:05:42.517Z,100.00
2022-08-07T04:08:20.975Z,100.00
2022-08-07T04:10:54.742Z,100.00
2022-08-07T04:14:10.680Z,100.00
2022-08-07T04:16:32.571Z,100.00
2022-08-07T04:19:12.772Z,100.00
2022-08-07T04:21:58.768Z,100.00
2022-08-07T04:24:39.244Z,100.00
2022-08-07T04:27:20.299Z,100.00
2022-08-07T04:30:01.687Z,100.00
2022-08-07T04:32:58.392Z,100.00
2022-08-07T04:35:35.420Z,100.00
2022-08-07T04:38:08.431Z,100.00
2022-08-07T04:40:51.193Z,100.00
2022-08-07T04:44:09.729Z,100.00
2022-08-07T04:46:26.016Z,99.04
2022-08-07T04:49:17.989Z,97.97
2022-08-07T04:51:55.533Z,97.05
2022-08-07T04:54:32.538Z,97.16
2022-08-07T04:58:13.160Z,96.34
2022-08-07T05:00:09.563Z,95.84
2022-08-07T05:02:49.542Z,94.96
2022-08-07T05:05:53.993Z,95.68
2022-08-07T05:08:19.309Z,95.29
2022-08-07T05:11:19.422Z,94.12
2022-08-07T05:14:53.679Z,94.01
2022-08-07T05:16:47.619Z,93.53
2022-08-07T05:19:25.785Z,94.51
2022-08-07T05:22:05.597Z,90.61
2022-08-07T05:24:42.000Z,91.46
2022-08-07T05:28:03.104Z,90.86
2022-08-07T05:30:04.401Z,89.78
2022-08-07T05:32:33.925Z,90.71
2022-08-07T05:35:03.802Z,88.58
2022-08-07T05:37:40.924Z,86.76
2022-08-07T05:40:17.763Z,85.87
2022-08-07T05:42:55.940Z,83.97
2022-08-07T05:45:47.407Z,80.74
2022-08-07T05:48:15.371Z,77.57
2022-08-07T05:50:47.451Z,77.92
2022-08-07T05:54:13.791Z,76.98
2022-08-07T05:56:12.536Z,76.66
2022-08-07T05:58:52.857Z,75.71
2022-08-07T06:01:27.123Z,75.13
2022-08-07T06:04:05.673Z,73.55
2022-08-07T06:06:46.074Z,72.78
2022-08-07T06:09:18.945Z,72.96
2022-08-07T06:11:50.269Z,73.25
2022-08-07T06:14:21.274Z,71.86
2022-08-07T06:16:59.736Z,72.10
2022-08-07T06:19:51.753Z,70.42
2022-08-07T06:22:27.396Z,70.63
2022-08-07T06:25:10.137Z,69.62
2022-08-07T06:28:00.655Z,67.30
2022-08-07T06:30:35.948Z,65.30
2022-08-07T06:33:16.647Z,64.99
2022-08-07T06:36:12.001Z,64.52
2022-08-07T06:38:39.511Z,62.46
2022-08-07T06:42:00.571Z,63.72
2022-08-07T06:44:24.391Z,63.92
2022-08-07T06:47:09.846Z,63.76
2022-08-07T06:49:52.203Z,61.81
2022-08-07T06:52:35.717Z,62.60
2022-08-07T06:55:32.250Z,63.05
2022-08-07T06:58:04.289Z,60.78
2022-08-07T07:00:39.675Z,58.38
2022-08-07T07:03:14.564Z,58.51
2022-08-07T07:06:05.122Z,58.49
2022-08-07T07:08:39.718Z,57.81
2022-08-07T07:12:08.357Z,56.06
2022-08-07T07:14:08.502Z,57.08
2022-08-07T07:16:49.495Z,55.85
2022-08-07T07:19:55.502Z,58.23
2022-08-07T07:22:35.955Z,55.13
2022-08-07T07:25:02.913Z,56.30
2022-08-07T07:27:56.397Z,54.61
2022-08-07T07:30:39.880Z,55.01
2022-08-07T07:33:11.972Z,55.22
2022-08-07T07:35:54.341Z,55.05
2022-08-07T07:38:35.810Z,56.63
2022-08-07T07:41:09.218Z,53.93
2022-08-07T07:44:14.244Z,54.22
2022-08-07T07:46:37.246Z,53.09
2022-08-07T07:50:35.275Z,53.45
2022-08-07T07:52:16.107Z,52.03
2022-08-07T07:54:51.377Z,54.02
2022-08-07T07:57:50.369Z,52.44
2022-08-07T08:00:14.917Z,52.11
2022-08-07T08:03:01.055Z,50.85
2022-08-07T08:05:50.862Z,51.01
2022-08-07T08:08:34.887Z,51.15
2022-08-07T08:11:08.413Z,51.02
2022-08-07T08:13:53.136Z,51.84
2022-08-07T08:16:29.829Z,52.94
2022-08-07T08:19:18.048Z,50.79
2022-08-07T08:22:10.545Z,50.21
2022-08-07T08:25:18.452Z,49.66
2022-08-07T08:27:56.687Z,48.66
2022-08-07T08:30:27.870Z,47.19
2022-08-07T08:33:00.511Z,47.82
2022-08-07T08:35:39.466Z,47.34
2022-08-07T08:38:18.043Z,48.62
2022-08-07T08:40:55.667Z,49.62
2022-08-07T08:43:42.847Z,48.43
2022-08-07T08:46:34.128Z,47.39
2022-08-07T08:49:17.532Z,45.80
2022-08-07T08:52:12.498Z,46.88
2022-08-07T08:54:48.595Z,47.27
2022-08-07T08:57:30.317Z,46.26
2022-08-07T09:00:06.730Z,45.66
2022-08-07T09:02:42.185Z,44.95
2022-08-07T09:05:37.437Z,45.96
2022-08-07T09:08:28.184Z,45.15
2022-08-07T09:11:10.672Z,47.32
2022-08-07T09:13:55.781Z,46.47
2022-08-07T09:16:41.828Z,46.80
2022-08-07T09:19:44.557Z,45.29
2022-08-07T09:24:28.741Z,45.42
2022-08-07T09:25:17.654Z,45.88
2022-08-07T09:28:00.484Z,45.57
2022-08-07T09:30:38.793Z,44.15
2022-08-07T09:33:40.944Z,45.04
2022-08-07T09:36:15.624Z,43.87
2022-08-07T09:38:54.018Z,44.81
2022-08-07T09:41:36.165Z,44.60
2022-08-07T09:44:32.676Z,43.65
2022-08-07T09:47:52.126Z,43.81
2022-08-07T09:50:19.487Z,44.71
2022-08-07T09:52:52.167Z,44.30
2022-08-07T09:55:29.467Z,45.94
2022-08-07T09:58:32.601Z,46.54
2022-08-07T10:01:14.859Z,46.56
2022-08-07T10:04:14.750Z,47.15
2022-08-07T10:07:25.883Z,46.88
2022-08-07T10:10:11.889Z,46.33
2022-08-07T10:13:29.581Z,46.28
2022-08-07T10:16:16.869Z,45.51
2022-08-07T10:19:11.212Z,45.84
2022-08-07T10:22:14.005Z,46.48
2022-08-07T10:25:08.930Z,44.75
2022-08-07T10:27:51.207Z,44.85
2022-08-07T10:30:28.427Z,47.20
2022-08-07T10:34:06.777Z,47.62
2022-08-07T10:36:29.916Z,49.58
2022-08-07T10:39:05.455Z,48.87
2022-08-07T10:41:51.815Z,46.58
2022-08-07T10:44:38.486Z,45.53
2022-08-07T10:47:27.114Z,42.45
2022-08-07T10:50:07.298Z,42.52
2022-08-07T10:52:51.336Z,42.10
2022-08-07T10:55:37.039Z,39.86
2022-08-07T10:58:31.904Z,40.95
2022-08-07T11:01:17.855Z,40.87
2022-08-07T11:04:16.502Z,39.84
2022-08-07T11:06:59.512Z,40.70
2022-08-07T11:10:09.677Z,39.87
2022-08-07T11:12:31.532Z,39.76
2022-08-07T11:15:14.681Z,39.20
2022-08-07T11:17:53.890Z,39.17
2022-08-07T11:20:31.888Z,38.67
2022-08-07T11:23:09.301Z,39.95
2022-08-07T11:25:47.953Z,39.61
2022-08-07T11:28:22.241Z,41.51
2022-08-07T11:30:59.133Z,40.63
2022-08-07T11:33:54.245Z,41.73
2022-08-07T11:36:40.335Z,43.81
2022-08-07T11:39:19.470Z,42.53
2022-08-07T11:42:01.541Z,43.21
2022-08-07T11:44:52.487Z,41.04
2022-08-07T11:47:56.292Z,42.47
2022-08-07T11:50:44.685Z,43.90
2022-08-07T11:54:01.121Z,44.41
2022-08-07T11:56:43.743Z,48.28
2022-08-07T12:00:10.247Z,43.45
2022-08-07T12:02:34.037Z,43.41
2022-08-07T12:05:15.374Z,43.21
2022-08-07T12:08:04.114Z,42.51
2022-08-07T12:10:42.155Z,41.53
2022-08-07T12:13:17.097Z,42.33
2022-08-07T12:16:06.533Z,42.07
2022-08-07T12:18:45.339Z,40.48
2022-08-07T12:22:35.877Z,41.64
2022-08-07T12:24:37.751Z,40.57
2022-08-07T12:27:16.257Z,42.43
2022-08-07T12:29:52.704Z,40.72
2022-08-07T12:32:28.913Z,40.11
2022-08-07T12:35:00.898Z,39.67
2022-08-07T12:38:09.581Z,38.44
2022-08-07T12:40:47.107Z,38.03
2022-08-07T12:44:02.414Z,39.50
2022-08-07T12:46:15.857Z,39.69
2022-08-07T12:49:09.820Z,39.88
2022-08-07T12:51:51.481Z,39.20
2022-08-07T12:54:38.842Z,39.65
2022-08-07T12:57:11.824Z,41.27
2022-08-07T12:59:55.693Z,41.44
2022-08-07T13:02:51.222Z,40.06
2022-08-07T13:06:02.847Z,39.24
2022-08-07T13:08:50.671Z,39.69
2022-08-07T13:12:03.473Z,39.66
2022-08-07T13:14:30.134Z,41.54
2022-08-07T13:17:11.329Z,41.32
2022-08-07T13:19:50.629Z,39.61
2022-08-07T13:22:31.026Z,39.42
2022-08-07T13:25:04.210Z,38.67
2022-08-07T13:28:11.369Z,37.16
2022-08-07T13:30:41.301Z,36.66
2022-08-07T13:34:31.488Z,38.39
2022-08-07T13:36:17.769Z,39.02
2022-08-07T13:38:56.409Z,37.99
2022-08-07T13:41:33.233Z,38.64
2022-08-07T13:44:05.299Z,38.66
2022-08-07T13:46:49.311Z,38.71
2022-08-07T13:50:33.660Z,39.56
2022-08-07T13:52:32.107Z,37.80
2022-08-07T13:55:06.968Z,37.99
2022-08-07T13:57:39.506Z,37.69
2022-08-07T14:00:50.518Z,37.66
2022-08-07T14:03:41.279Z,38.84
2022-08-07T14:06:16.839Z,39.54
2022-08-07T14:08:53.626Z,41.02
2022-08-07T14:11:24.217Z,40.47
2022-08-07T14:14:04.532Z,40.96
2022-08-07T14:16:41.246Z,40.70
2022-08-07T14:20:40.178Z,39.85
2022-08-07T14:22:34.057Z,40.55
2022-08-07T14:25:08.261Z,40.75
2022-08-07T14:28:11.359Z,40.02
2022-08-07T14:30:33.978Z,39.08
2022-08-07T14:33:05.442Z,38.67
2022-08-07T14:35:44.798Z,37.52
2022-08-07T14:38:30.847Z,38.14
2022-08-07T14:41:02.195Z,37.57
2022-08-07T14:43:59.027Z,38.60
2022-08-07T14:46:31.187Z,39.27
2022-08-07T14:49:17.596Z,38.89
2022-08-07T14:52:03.212Z,38.71
2022-08-07T14:54:43.166Z,37.83
2022-08-07T14:57:15.022Z,39.04
2022-08-07T15:00:04.395Z,40.15
2022-08-07T15:02:37.126Z,36.69
2022-08-07T15:05:20.363Z,36.93
2022-08-07T15:07:53.645Z,37.51
2022-08-07T15:10:27.175Z,35.86
2022-08-07T15:13:06.400Z,36.01
2022-08-07T15:15:38.898Z,34.87
2022-08-07T15:18:14.566Z,33.98
2022-08-07T15:25:13.103Z,33.91
2022-08-07T15:26:44.953Z,33.13
2022-08-07T15:30:08.801Z,34.80
2022-08-07T15:32:11.742Z,35.87
2022-08-07T15:34:50.139Z,38.16
2022-08-07T15:37:22.157Z,39.36
2022-08-07T15:40:01.163Z,37.00
2022-08-07T15:42:57.997Z,34.14
2022-08-07T15:45:57.442Z,32.61
2022-08-07T15:48:26.166Z,33.10
2022-08-07T15:51:09.583Z,35.35
2022-08-07T15:53:53.219Z,32.42
2022-08-07T15:56:33.345Z,30.16
2022-08-07T15:59:05.698Z,29.67
2022-08-07T16:01:38.745Z,31.27
2022-08-07T16:04:14.748Z,30.34
2022-08-07T16:06:50.900Z,30.06
2022-08-07T16:09:23.867Z,30.27
2022-08-07T16:12:28.737Z,30.50
2022-08-07T16:15:57.821Z,31.27
2022-08-07T16:18:14.365Z,30.26
2022-08-07T16:22:01.733Z,31.07
2022-08-07T16:24:03.529Z,30.21
2022-08-07T16:26:59.783Z,29.80
2022-08-07T16:30:10.356Z,29.60
2022-08-07T16:32:46.180Z,31.01
2022-08-07T16:35:51.554Z,32.82
2022-08-07T16:39:00.591Z,34.13
2022-08-07T16:42:08.817Z,35.76
2022-08-07T16:45:23.292Z,38.75
2022-08-07T16:48:28.604Z,37.89
2022-08-07T16:52:01.344Z,36.24
2022-08-07T16:54:32.786Z,35.67
2022-08-07T16:57:15.530Z,35.91
2022-08-07T16:59:52.685Z,37.41
2022-08-07T17:02:53.611Z,40.01
2022-08-07T17:06:19.975Z,39.83
2022-08-07T17:09:09.484Z,39.26
2022-08-07T17:12:04.434Z,39.66
2022-08-07T17:14:45.234Z,41.11
2022-08-07T17:17:46.136Z,41.28
2022-08-07T17:20:29.630Z,41.87
2022-08-07T17:23:03.827Z,43.71
2022-08-07T17:25:52.061Z,47.05
2022-08-07T17:28:31.097Z,48.04
2022-08-07T17:31:16.302Z,49.98
2022-08-07T17:34:18.056Z,49.95
2022-08-07T17:36:57.868Z,51.16
2022-08-07T17:39:57.809Z,48.75
2022-08-07T17:42:59.629Z,49.91
2022-08-07T17:45:35.228Z,49.41
2022-08-07T17:48:11.229Z,50.55
2022-08-07T17:50:58.325Z,50.45
2022-08-07T17:54:01.768Z,49.38
2022-08-07T17:56:33.624Z,50.54
2022-08-07T17:59:17.015Z,51.33
2022-08-07T18:01:56.752Z,50.86
2022-08-07T18:04:34.687Z,50.18
2022-08-07T18:07:20.586Z,53.10
2022-08-07T18:10:06.197Z,55.38
2022-08-07T18:13:11.250Z,54.83
2022-08-07T18:15:59.916Z,55.53
2022-08-07T18:18:47.271Z,53.89
2022-08-07T18:21:51.805Z,55.06
2022-08-07T18:24:34.533Z,55.52
2022-08-07T18:27:17.467Z,56.14
2022-08-07T18:30:31.353Z,59.76
2022-08-07T18:33:27.968Z,59.05
2022-08-07T18:36:08.665Z,60.69
2022-08-07T18:38:58.987Z,60.39
2022-08-07T18:41:45.675Z,60.80
2022-08-07T18:44:32.550Z,61.15
2022-08-07T18:47:22.487Z,62.11
2022-08-07T18:50:31.641Z,62.64
2022-08-07T18:53:06.434Z,62.01
2022-08-07T18:55:57.052Z,61.75
2022-08-07T18:58:52.242Z,62.09
2022-08-07T19:02:20.002Z,62.40
2022-08-07T19:04:56.096Z,64.23
2022-08-07T19:07:34.998Z,64.91
2022-08-07T19:10:18.319Z,65.06
2022-08-07T19:12:59.472Z,64.94
2022-08-07T19:16:05.064Z,64.44
2022-08-07T19:18:45.035Z,63.53
2022-08-07T19:21:44.047Z,63.99
2022-08-07T19:24:30.209Z,66.52
2022-08-07T19:28:56.587Z,68.18
2022-08-07T19:31:02.150Z,67.24
2022-08-07T19:32:51.234Z,67.62
2022-08-07T19:35:24.310Z,67.82
2022-08-07T19:37:58.210Z,67.96
2022-08-07T19:40:30.933Z,68.68
2022-08-07T19:43:09.153Z,69.11
2022-08-07T19:46:06.231Z,69.23
2022-08-07T19:48:42.959Z,67.95
2022-08-07T19:51:19.558Z,67.36
2022-08-07T19:54:31.810Z,67.72
2022-08-07T19:58:00.369Z,67.22
2022-08-07T19:59:41.376Z,68.75
2022-08-07T20:02:19.846Z,69.15
2022-08-07T20:05:00.825Z,72.83
2022-08-07T20:07:46.554Z,74.38
2022-08-07T20:10:36.181Z,73.41
2022-08-07T20:13:23.091Z,71.76
2022-08-07T20:15:55.275Z,70.87
2022-08-07T20:18:33.687Z,70.07
2022-08-07T20:21:14.237Z,72.13
2022-08-07T20:23:57.904Z,72.80
2022-08-07T20:26:32.816Z,73.41
2022-08-07T20:29:47.281Z,73.59
2022-08-07T20:32:02.274Z,75.39
2022-08-07T20:34:50.168Z,75.75
2022-08-07T20:37:26.115Z,76.54
2022-08-07T20:40:02.539Z,75.25
2022-08-07T20:42:38.423Z,74.38
2022-08-07T20:45:33.473Z,74.56
2022-08-07T20:48:02.104Z,74.73
2022-08-07T20:50:31.792Z,74.03
2022-08-07T20:53:00.577Z,74.93
2022-08-07T20:55:32.279Z,74.38
2022-08-07T20:58:19.170Z,75.11
2022-08-07T21:00:56.065Z,75.79
2022-08-07T21:03:26.192Z,76.69
2022-08-07T21:05:58.353Z,75.75
2022-08-07T21:08:36.719Z,75.19
2022-08-07T21:11:11.063Z,74.61
2022-08-07T21:14:16.387Z,75.22
2022-08-07T21:16:56.403Z,76.22
2022-08-07T21:19:32.370Z,78.02
2022-08-07T21:22:19.978Z,79.43
2022-08-07T21:25:04.822Z,80.40
2022-08-07T21:28:01.899Z,80.71
2022-08-07T21:30:43.390Z,80.44
2022-08-07T21:33:19.064Z,79.47
2022-08-07T21:36:05.103Z,78.42
2022-08-07T21:38:50.114Z,78.51
2022-08-07T21:41:27.800Z,78.94
2022-08-07T21:44:14.244Z,80.34
2022-08-07T21:47:00.929Z,82.27
2022-08-07T21:50:01.244Z,83.11
2022-08-07T21:52:35.088Z,84.06
2022-08-07T21:55:12.740Z,83.37
2022-08-07T21:58:03.400Z,82.06
2022-08-07T22:00:32.875Z,81.49
2022-08-07T22:03:11.031Z,81.09
2022-08-07T22:05:50.732Z,81.37
2022-08-07T22:08:23.216Z,81.85
2022-08-07T22:10:55.842Z,81.66
2022-08-07T22:13:50.964Z,80.52
2022-08-07T22:16:39.548Z,80.61
2022-08-07T22:19:18.015Z,80.28
2022-08-07T22:22:05.141Z,81.15
2022-08-07T22:24:53.395Z,81.45
2022-08-07T22:28:02.889Z,82.76
2022-08-07T22:30:17.844Z,83.38
2022-08-07T22:33:02.283Z,84.69
2022-08-07T22:35:41.857Z,87.05
2022-08-07T22:38:24.320Z,88.25
2022-08-07T22:41:00.127Z,87.92
2022-08-07T22:43:37.230Z,88.08
2022-08-07T22:47:02.191Z,88.19
2022-08-07T22:49:54.305Z,88.62
2022-08-07T22:52:57.780Z,87.74
2022-08-07T22:55:44.498Z,87.48
2022-08-07T22:59:05.006Z,86.85
2022-08-07T23:01:59.066Z,86.15
2022-08-07T23:04:58.647Z,86.97
2022-08-07T23:07:50.010Z,87.25
2022-08-07T23:10:41.248Z,87.63
2022-08-07T23:13:49.245Z,88.81
2022-08-07T23:16:55.295Z,88.89
2022-08-07T23:19:58.048Z,88.59
2022-08-07T23:22:39.161Z,88.63
2022-08-07T23:25:18.635Z,89.02
2022-08-07T23:28:22.948Z,88.81
2022-08-07T23:31:13.920Z,88.90
2022-08-07T23:34:37.751Z,89.14
2022-08-07T23:38:01.558Z,90.47
2022-08-07T23:40:35.952Z,90.61
2022-08-07T23:43:51.432Z,90.06
2022-08-07T23:46:39.994Z,89.52
2022-08-07T23:49:50.055Z,88.75
2022-08-07T23:53:06.241Z,88.33
2022-08-07T23:55:52.932Z,87.98
2022-08-07T23:58:21.671Z,87.53
